Time;durP1;ratioP1;P1;durP2;ratioP2;P2;SDS_P1;SDS_P2;PMS_P1;PMS_P2;Temp;Humidity;BMP_temperature;BMP_pressure;BME280_temperature;BME280_humidity;BME280_pressure;Samples;Min_cycle;Max_cycle;Signal;HPM_P1;HPM_P2
2021/03/15 00:01:02;;;;;;;23.02;4.58;;;8.00;99.90;;;;;;1891458;74;21535;-74
2021/03/15 00:03:30;;;;;;;27.42;4.58;;;8.00;99.90;;;;;;1897775;74;21131;-74
2021/03/15 00:05:59;;;;;;;21.35;4.47;;;8.00;99.90;;;;;;1899829;74;21078;-72
2021/03/15 00:08:27;;;;;;;16.75;3.55;;;8.10;99.90;;;;;;1890958;74;21496;-72
2021/03/15 00:10:57;;;;;;;27.48;4.60;;;8.20;99.90;;;;;;1898445;74;21201;-72
2021/03/15 00:13:25;;;;;;;21.95;3.70;;;8.10;99.90;;;;;;1896654;74;21116;-73
2021/03/15 00:15:55;;;;;;;17.12;3.60;;;8.10;99.90;;;;;;1889172;74;21261;-73
2021/03/15 00:18:22;;;;;;;17.17;4.00;;;8.00;99.90;;;;;;1889494;74;21171;-73
2021/03/15 00:20:50;;;;;;;23.52;4.22;;;8.00;99.90;;;;;;1890081;74;21121;-72
2021/03/15 00:23:18;;;;;;;19.00;4.40;;;7.90;99.90;;;;;;1892932;74;21101;-72
2021/03/15 00:25:46;;;;;;;21.60;4.37;;;7.90;99.90;;;;;;1883988;74;21574;-72
2021/03/15 00:28:13;;;;;;;18.85;3.30;;;7.90;99.90;;;;;;1889078;74;21571;-73
2021/03/15 00:30:41;;;;;;;17.30;3.62;;;8.00;99.90;;;;;;1895571;74;21092;-72
2021/03/15 00:33:08;;;;;;;21.35;3.25;;;8.00;99.90;;;;;;1897196;74;21062;-72
2021/03/15 00:35:36;;;;;;;20.82;3.58;;;8.00;99.90;;;;;;1897483;74;21074;-72
2021/03/15 00:38:04;;;;;;;12.88;3.33;;;8.00;99.90;;;;;;1899006;74;21155;-73
2021/03/15 00:40:31;;;;;;;17.05;3.47;;;8.00;99.90;;;;;;1894711;74;21152;-72
2021/03/15 00:42:59;;;;;;;15.85;3.40;;;8.00;99.90;;;;;;1906963;74;21096;-73
2021/03/15 00:45:28;;;;;;;20.65;3.65;;;8.10;99.90;;;;;;1895214;74;21117;-73
2021/03/15 00:47:55;;;;;;;15.23;3.98;;;8.20;99.90;;;;;;1897626;74;22339;-73
2021/03/15 00:50:25;;;;;;;16.62;3.80;;;8.20;99.90;;;;;;1894453;74;21630;-73
2021/03/15 00:52:53;;;;;;;18.32;3.52;;;8.30;99.90;;;;;;1889413;74;21214;-73
2021/03/15 00:55:21;;;;;;;18.05;3.33;;;8.30;99.90;;;;;;1892391;74;21046;-73
2021/03/15 00:57:49;;;;;;;16.50;3.67;;;8.30;99.90;;;;;;1888518;74;21198;-73
2021/03/15 01:00:19;;;;;;;17.07;3.22;;;8.20;99.90;;;;;;1886786;74;21570;-74
2021/03/15 01:02:47;;;;;;;10.65;2.72;;;8.10;99.90;;;;;;1886446;74;21096;-73
2021/03/15 01:05:14;;;;;;;14.00;3.50;;;8.10;99.90;;;;;;1886068;74;21554;-73
2021/03/15 01:07:42;;;;;;;9.13;2.95;;;8.00;99.90;;;;;;1895632;74;21127;-74
2021/03/15 01:10:12;;;;;;;14.45;3.77;;;7.90;99.90;;;;;;1885695;74;21085;-74
2021/03/15 01:12:40;;;;;;;12.78;3.72;;;8.00;99.90;;;;;;1894314;74;21058;-73
2021/03/15 01:15:10;;;;;;;10.08;3.65;;;8.00;99.90;;;;;;1895137;74;21147;-72
2021/03/15 01:17:37;;;;;;;15.53;3.40;;;8.10;99.90;;;;;;1889652;74;21248;-73
2021/03/15 01:20:07;;;;;;;12.88;3.55;;;8.20;99.90;;;;;;1893534;74;21039;-73
2021/03/15 01:22:35;;;;;;;11.95;3.10;;;8.10;99.90;;;;;;1888440;74;21485;-74
2021/03/15 01:25:03;;;;;;;10.90;2.95;;;8.10;99.90;;;;;;1892709;74;21490;-74
2021/03/15 01:27:30;;;;;;;7.83;2.65;;;8.20;99.90;;;;;;1889867;74;21230;-74
2021/03/15 01:29:58;;;;;;;9.08;2.50;;;8.00;99.90;;;;;;1888460;74;21088;-73
2021/03/15 01:32:26;;;;;;;10.32;2.62;;;8.00;99.90;;;;;;1889290;74;21166;-74
2021/03/15 01:34:53;;;;;;;8.18;2.45;;;8.00;99.90;;;;;;1888632;74;21101;-73
2021/03/15 01:37:20;;;;;;;7.70;2.52;;;8.10;99.90;;;;;;1894836;74;21676;-73
2021/03/15 01:39:48;;;;;;;8.10;2.45;;;8.20;99.90;;;;;;1898976;74;21174;-74
2021/03/15 01:42:15;;;;;;;7.03;2.60;;;8.10;99.90;;;;;;1893779;74;21120;-73
2021/03/15 01:44:43;;;;;;;3.90;1.98;;;8.10;99.90;;;;;;1894867;74;21086;-73
2021/03/15 01:47:10;;;;;;;6.30;1.90;;;8.10;99.90;;;;;;1891682;74;21184;-73
2021/03/15 01:49:38;;;;;;;5.80;2.17;;;8.20;99.90;;;;;;1893884;74;21128;-73
2021/03/15 01:52:06;;;;;;;6.33;2.27;;;8.20;99.90;;;;;;1903669;74;21097;-73
2021/03/15 01:54:34;;;;;;;6.87;2.05;;;8.20;99.90;;;;;;1897526;74;21088;-73
2021/03/15 01:57:01;;;;;;;6.97;2.20;;;8.10;99.90;;;;;;1895190;74;21639;-73
2021/03/15 01:59:29;;;;;;;8.03;2.22;;;8.10;99.90;;;;;;1887136;74;21545;-73
2021/03/15 02:01:56;;;;;;;4.75;2.00;;;8.20;99.90;;;;;;1894587;74;21222;-74
2021/03/15 02:04:26;;;;;;;5.25;2.08;;;8.20;99.90;;;;;;1893011;74;21144;-74
2021/03/15 02:06:54;;;;;;;4.30;2.10;;;8.10;99.90;;;;;;1897841;74;21779;-74
2021/03/15 02:09:22;;;;;;;8.75;2.60;;;8.10;99.90;;;;;;1895374;74;21104;-73
2021/03/15 02:12:07;;;;;;;6.22;2.02;;;8.00;99.90;;;;;;1895555;74;21073;-73
2021/03/15 02:14:43;;;;;;;9.55;2.42;;;8.00;99.90;;;;;;1890607;74;21572;-74
2021/03/15 02:17:25;;;;;;;6.03;2.50;;;8.10;99.90;;;;;;1897987;73;21239;-67
2021/03/15 02:20:21;;;;;;;5.90;2.00;;;8.10;99.90;;;;;;1929073;73;21172;-68
2021/03/15 02:22:52;;;;;;;5.90;2.20;;;8.20;99.90;;;;;;1929207;73;21168;-68
2021/03/15 02:25:42;;;;;;;6.72;2.30;;;8.20;99.90;;;;;;1930557;73;21094;-67
2021/03/15 02:28:18;;;;;;;6.70;2.45;;;8.20;99.90;;;;;;1900729;73;21126;-67
2021/03/15 02:31:22;;;;;;;9.80;2.50;;;8.20;99.90;;;;;;1871615;75;21050;-68
2021/03/15 02:34:22;;;;;;;5.55;2.25;;;8.30;99.90;;;;;;1877484;75;21611;-67
2021/03/15 02:36:50;;;;;;;6.67;2.25;;;8.10;99.90;;;;;;1868616;75;21110;-68
2021/03/15 02:39:21;;;;;;;5.62;2.52;;;8.10;99.90;;;;;;1879143;75;21058;-67
2021/03/15 02:41:50;;;;;;;7.83;2.20;;;8.20;99.90;;;;;;1872321;75;21177;-67
2021/03/15 02:44:19;;;;;;;6.72;2.47;;;8.10;99.90;;;;;;1873078;75;21140;-68
2021/03/15 02:46:48;;;;;;;7.92;2.55;;;8.20;99.90;;;;;;1877657;75;21567;-66
2021/03/15 02:49:18;;;;;;;6.78;2.47;;;8.20;99.90;;;;;;1869852;75;21126;-67
2021/03/15 02:51:48;;;;;;;4.58;2.40;;;8.30;99.90;;;;;;1871873;75;21556;-68
2021/03/15 02:54:18;;;;;;;6.65;1.90;;;8.30;99.90;;;;;;1874591;75;21074;-68
2021/03/15 02:56:47;;;;;;;3.12;1.50;;;8.20;99.90;;;;;;1879805;75;21089;-69
2021/03/15 02:59:17;;;;;;;5.55;1.92;;;8.10;99.90;;;;;;1873215;75;21090;-69
2021/03/15 03:01:46;;;;;;;5.00;1.98;;;8.10;99.90;;;;;;1873118;75;21128;-66
2021/03/15 03:04:16;;;;;;;3.30;1.70;;;8.10;99.90;;;;;;1874128;75;21117;-69
2021/03/15 03:06:45;;;;;;;4.08;1.65;;;8.10;99.90;;;;;;1875256;75;22834;-69
2021/03/15 03:09:15;;;;;;;5.28;1.60;;;8.20;99.90;;;;;;1871440;75;21164;-67
2021/03/15 03:11:45;;;;;;;4.55;1.60;;;8.20;99.90;;;;;;1873744;75;21046;-67
2021/03/15 03:14:14;;;;;;;5.75;1.72;;;8.10;99.90;;;;;;1869580;75;21089;-69
2021/03/15 03:16:42;;;;;;;5.47;1.25;;;8.20;99.90;;;;;;1876463;75;21580;-69
2021/03/15 03:19:12;;;;;;;3.55;1.42;;;8.20;99.90;;;;;;1894102;74;21109;-69
2021/03/15 03:21:42;;;;;;;4.60;1.55;;;8.00;99.90;;;;;;1905176;74;21160;-69
2021/03/15 03:24:10;;;;;;;2.62;1.62;;;7.90;99.90;;;;;;1910846;74;21482;-69
2021/03/15 03:26:39;;;;;;;2.30;1.40;;;7.90;99.90;;;;;;1903658;74;21129;-69
2021/03/15 03:29:10;;;;;;;3.95;1.50;;;8.00;99.90;;;;;;1906044;74;21640;-69
2021/03/15 03:31:40;;;;;;;3.22;1.45;;;8.00;99.90;;;;;;1901723;74;21142;-68
2021/03/15 03:34:08;;;;;;;3.08;1.42;;;8.00;99.90;;;;;;1904710;74;21272;-69
2021/03/15 03:36:36;;;;;;;2.72;1.40;;;8.10;99.90;;;;;;1901518;74;21096;-69
2021/03/15 03:39:06;;;;;;;4.55;1.70;;;8.10;99.90;;;;;;1904811;74;21041;-69
2021/03/15 03:41:35;;;;;;;5.37;1.85;;;8.10;99.90;;;;;;1904799;74;21057;-69
2021/03/15 03:44:03;;;;;;;3.42;1.60;;;8.00;99.90;;;;;;1904624;74;21030;-68
2021/03/15 03:46:30;;;;;;;3.33;1.85;;;8.00;99.90;;;;;;1904590;74;21011;-69
2021/03/15 03:48:58;;;;;;;3.98;1.90;;;8.00;99.90;;;;;;1905346;74;21141;-67
2021/03/15 03:51:28;;;;;;;2.83;1.55;;;8.00;99.90;;;;;;1905487;74;21610;-69
2021/03/15 03:54:14;;;;;;;4.55;1.80;;;8.00;99.90;;;;;;1909070;74;21088;-69
2021/03/15 03:57:05;;;;;;;3.65;1.87;;;8.00;99.90;;;;;;1902358;74;21045;-68
2021/03/15 03:59:35;;;;;;;4.00;1.70;;;8.00;99.90;;;;;;1904954;74;21657;-69
2021/03/15 04:02:04;;;;;;;4.90;2.02;;;7.80;99.90;;;;;;1909988;74;21014;-67
2021/03/15 04:04:35;;;;;;;4.75;2.27;;;7.70;99.90;;;;;;1903143;74;21022;-69
2021/03/15 04:07:04;;;;;;;4.50;1.80;;;7.60;99.90;;;;;;1908026;74;20990;-70
2021/03/15 04:09:34;;;;;;;3.12;1.87;;;7.50;99.90;;;;;;1904621;74;22732;-68
2021/03/15 04:12:10;;;;;;;3.90;1.92;;;7.60;99.90;;;;;;1901633;74;21640;-69
2021/03/15 04:14:40;;;;;;;3.45;1.90;;;7.70;99.90;;;;;;1900126;74;21094;-68
2021/03/15 04:17:14;;;;;;;6.45;1.87;;;7.70;99.90;;;;;;1860777;75;21208;-68
2021/03/15 04:19:47;;;;;;;4.83;2.08;;;7.80;99.90;;;;;;1827330;77;21204;-67
2021/03/15 04:22:16;;;;;;;2.80;1.70;;;7.80;99.90;;;;;;1899567;74;21583;-68
2021/03/15 04:24:45;;;;;;;3.62;2.05;;;7.80;99.90;;;;;;1905983;74;21177;-67
2021/03/15 04:27:15;;;;;;;6.78;2.45;;;7.80;99.90;;;;;;1900199;74;21207;-68
2021/03/15 04:29:43;;;;;;;5.22;2.40;;;7.80;99.90;;;;;;1902579;74;21062;-68
2021/03/15 04:32:12;;;;;;;4.22;2.20;;;7.90;99.90;;;;;;1900155;74;21113;-68
2021/03/15 04:34:40;;;;;;;4.53;2.00;;;7.90;99.90;;;;;;1898977;74;21118;-68
2021/03/15 04:37:10;;;;;;;9.23;2.30;;;7.80;99.90;;;;;;1901030;74;21207;-67
2021/03/15 04:39:38;;;;;;;2.65;2.00;;;7.90;99.90;;;;;;1902560;74;21059;-66
2021/03/15 04:42:07;;;;;;;2.85;2.00;;;8.00;99.90;;;;;;1905491;74;21370;-69
2021/03/15 04:44:41;;;;;;;5.65;2.30;;;8.00;99.90;;;;;;1900886;74;21075;-69
2021/03/15 04:47:06;;;;;;;4.90;2.30;;;8.10;99.90;;;;;;1903899;73;21137;-70
2021/03/15 04:49:34;;;;;;;3.47;2.17;;;8.10;99.90;;;;;;1909768;74;21841;-68
2021/03/15 04:52:03;;;;;;;4.92;2.60;;;8.00;99.90;;;;;;1900092;74;21031;-70
2021/03/15 04:54:30;;;;;;;4.40;2.62;;;8.00;99.90;;;;;;1900344;74;21073;-69
2021/03/15 04:56:59;;;;;;;5.17;2.42;;;8.00;99.90;;;;;;1900962;74;21073;-69
2021/03/15 04:59:30;;;;;;;5.03;2.15;;;8.00;99.90;;;;;;1898383;74;21190;-66
2021/03/15 05:02:00;;;;;;;4.95;2.47;;;8.00;99.90;;;;;;1907194;74;21140;-68
2021/03/15 05:04:28;;;;;;;3.65;2.42;;;7.80;99.90;;;;;;1898903;74;21576;-68
2021/03/15 05:06:56;;;;;;;7.83;2.95;;;7.70;99.90;;;;;;1902119;74;21101;-68
2021/03/15 05:09:25;;;;;;;3.35;2.30;;;7.80;99.90;;;;;;1901326;74;21577;-67
2021/03/15 05:11:53;;;;;;;3.70;2.62;;;7.80;99.90;;;;;;1899673;74;21124;-66
2021/03/15 05:14:21;;;;;;;5.25;2.47;;;8.00;99.90;;;;;;1900571;74;21062;-67
2021/03/15 05:16:49;;;;;;;5.92;2.87;;;7.90;99.90;;;;;;1903462;74;21167;-67
2021/03/15 05:19:18;;;;;;;6.30;3.40;;;7.80;99.90;;;;;;1900562;74;21145;-70
2021/03/15 05:21:46;;;;;;;6.75;3.10;;;7.80;99.90;;;;;;1904025;74;21133;-70
2021/03/15 05:24:16;;;;;;;6.53;3.62;;;7.80;99.90;;;;;;1902284;74;21149;-67
2021/03/15 05:26:44;;;;;;;7.90;3.62;;;7.70;99.90;;;;;;1906533;74;21139;-68
2021/03/15 05:29:14;;;;;;;9.85;4.00;;;7.80;99.90;;;;;;1904715;74;21537;-68
2021/03/15 05:31:47;;;;;;;9.95;4.15;;;7.80;99.90;;;;;;1905225;74;21546;-69
2021/03/15 05:34:16;;;;;;;7.75;3.77;;;7.80;99.90;;;;;;1902952;74;21535;-70
2021/03/15 05:36:45;;;;;;;10.80;3.83;;;7.90;99.90;;;;;;1907017;74;21205;-68
2021/03/15 05:39:13;;;;;;;9.73;4.10;;;8.00;99.90;;;;;;1907782;72;21136;-67
2021/03/15 05:42:01;;;;;;;12.03;4.30;;;8.00;99.90;;;;;;1905553;74;21127;-68
2021/03/15 05:44:57;;;;;;;11.68;3.90;;;7.90;99.90;;;;;;1900956;74;21156;-67
2021/03/15 05:47:52;;;;;;;11.55;4.17;;;7.90;99.90;;;;;;1905663;74;21121;-67
2021/03/15 05:50:35;;;;;;;11.95;4.60;;;8.00;99.90;;;;;;1900722;74;21082;-68
2021/03/15 05:53:28;;;;;;;7.62;4.03;;;7.90;99.90;;;;;;1878101;74;21179;-68
2021/03/15 05:56:02;;;;;;;13.15;4.40;;;8.00;99.90;;;;;;1904175;74;21105;-69
2021/03/15 05:58:38;;;;;;;8.08;3.90;;;8.00;99.90;;;;;;1904287;74;21129;-69
2021/03/15 06:01:24;;;;;;;11.03;3.98;;;8.00;99.90;;;;;;1898701;74;21137;-68
2021/03/15 06:04:14;;;;;;;8.65;3.80;;;8.00;99.90;;;;;;1901080;74;21163;-69
2021/03/15 06:06:45;;;;;;;10.30;3.90;;;7.90;99.90;;;;;;1902339;74;21109;-69
2021/03/15 06:09:15;;;;;;;10.85;4.20;;;7.90;99.90;;;;;;1903697;74;21215;-69
2021/03/15 06:12:01;;;;;;;11.25;4.05;;;7.80;99.90;;;;;;1903855;74;21173;-68
2021/03/15 06:14:30;;;;;;;10.08;4.42;;;7.70;99.90;;;;;;1901610;74;22179;-66
2021/03/15 06:16:58;;;;;;;13.68;4.08;;;7.80;99.90;;;;;;1904223;74;21113;-68
2021/03/15 06:19:26;;;;;;;14.65;4.15;;;7.80;99.90;;;;;;1904524;74;21712;-68
2021/03/15 06:21:54;;;;;;;16.32;4.30;;;7.80;99.90;;;;;;1904119;74;21078;-67
2021/03/15 06:24:22;;;;;;;12.33;3.72;;;7.80;99.90;;;;;;1903385;74;21170;-68
2021/03/15 06:26:51;;;;;;;14.90;3.90;;;7.80;99.90;;;;;;1900390;74;21117;-67
2021/03/15 06:29:19;;;;;;;11.93;4.12;;;7.80;99.90;;;;;;1903394;74;21055;-67
2021/03/15 06:31:52;;;;;;;10.80;3.45;;;7.80;99.90;;;;;;1901639;74;21525;-68
2021/03/15 06:34:17;;;;;;;11.73;4.08;;;7.90;99.90;;;;;;1904279;73;21235;-69
2021/03/15 06:36:46;;;;;;;13.68;3.70;;;8.00;99.90;;;;;;1900208;74;21109;-67
2021/03/15 06:39:16;;;;;;;13.03;3.75;;;8.00;99.90;;;;;;1902133;74;21181;-69
2021/03/15 06:41:46;;;;;;;9.43;3.60;;;8.10;99.90;;;;;;1902050;74;21105;-68
2021/03/15 06:44:13;;;;;;;11.12;3.77;;;8.10;99.90;;;;;;1900680;74;21167;-66
2021/03/15 06:46:42;;;;;;;16.57;3.62;;;8.20;99.90;;;;;;1904371;74;21089;-69
2021/03/15 06:49:10;;;;;;;14.07;3.70;;;8.20;99.90;;;;;;1902558;74;21160;-67
2021/03/15 06:51:37;;;;;;;15.00;4.10;;;8.20;99.90;;;;;;1897876;74;21156;-66
2021/03/15 06:54:05;;;;;;;19.12;4.22;;;8.20;99.90;;;;;;1901590;74;21104;-68
2021/03/15 06:56:32;;;;;;;12.00;3.80;;;8.20;99.90;;;;;;1896987;74;21105;-71
2021/03/15 06:59:00;;;;;;;14.65;3.70;;;8.30;99.90;;;;;;1903846;74;21118;-69
2021/03/15 07:01:29;;;;;;;16.70;4.45;;;8.30;99.90;;;;;;1899052;74;21178;-69
2021/03/15 07:04:05;;;;;;;13.58;4.00;;;8.40;99.90;;;;;;1897368;74;21497;-69
2021/03/15 07:06:37;;;;;;;17.50;4.08;;;8.40;99.90;;;;;;1895121;74;21074;-69
2021/03/15 07:09:16;;;;;;;20.52;4.70;;;8.40;99.90;;;;;;1901297;74;21536;-67
2021/03/15 07:11:44;;;;;;;13.55;3.72;;;8.30;99.90;;;;;;1902599;74;21101;-69
2021/03/15 07:14:27;;;;;;;16.85;4.37;;;8.30;99.90;;;;;;1905206;74;21070;-67
2021/03/15 07:16:58;;;;;;;22.13;4.58;;;8.30;99.90;;;;;;1905226;74;21190;-69
2021/03/15 07:19:26;;;;;;;17.32;4.15;;;8.30;99.90;;;;;;1904213;74;21031;-69
2021/03/15 07:21:54;;;;;;;14.28;4.10;;;8.40;99.90;;;;;;1904979;74;21120;-69
2021/03/15 07:24:25;;;;;;;19.60;4.25;;;8.40;99.90;;;;;;1903684;74;21257;-69
2021/03/15 07:26:54;;;;;;;21.37;4.87;;;8.50;99.90;;;;;;1902459;74;21101;-68
2021/03/15 07:29:23;;;;;;;18.37;4.92;;;8.50;99.90;;;;;;1900864;74;21081;-71
2021/03/15 07:31:51;;;;;;;18.00;4.37;;;8.70;99.90;;;;;;1898765;74;21074;-72
2021/03/15 07:34:21;;;;;;;15.78;4.65;;;8.70;99.90;;;;;;1905211;74;21082;-68
2021/03/15 07:36:57;;;;;;;18.60;4.00;;;8.70;99.90;;;;;;1902682;74;21602;-68
2021/03/15 07:39:31;;;;;;;18.05;4.40;;;8.70;99.90;;;;;;1896061;74;21089;-68
2021/03/15 07:42:03;;;;;;;15.13;4.37;;;8.70;99.90;;;;;;1901381;74;21202;-69
2021/03/15 07:44:36;;;;;;;25.08;4.70;;;8.70;99.90;;;;;;1905953;74;21509;-69
2021/03/15 07:47:04;;;;;;;;;;;8.80;99.90;;;;;;1909693;74;21610;-65
2021/03/15 07:49:38;;;;;;;21.10;4.70;;;8.80;99.90;;;;;;1903470;74;20224;-69
2021/03/15 07:52:10;;;;;;;25.05;4.37;;;8.60;99.90;;;;;;1905306;74;21039;-68
2021/03/15 07:54:40;;;;;;;19.42;4.50;;;8.60;99.90;;;;;;1910874;74;21031;-70
2021/03/15 07:57:19;;;;;;;26.10;4.80;;;8.70;99.90;;;;;;1904360;74;21016;-70
2021/03/15 07:59:52;;;;;;;16.52;4.33;;;8.80;99.90;;;;;;1902370;74;21085;-70
2021/03/15 08:02:30;;;;;;;17.87;4.00;;;8.90;99.90;;;;;;1891036;74;21070;-70
2021/03/15 08:04:59;;;;;;;21.50;4.10;;;8.90;99.90;;;;;;1902225;74;21034;-71
2021/03/15 08:07:27;;;;;;;24.70;4.97;;;9.00;99.90;;;;;;1901503;74;21571;-69
2021/03/15 08:09:57;;;;;;;18.25;4.65;;;9.00;99.90;;;;;;1902696;74;21730;-68
2021/03/15 08:12:27;;;;;;;24.67;4.47;;;9.00;99.90;;;;;;1902754;74;21153;-70
2021/03/15 08:15:00;;;;;;;20.00;4.65;;;8.90;99.90;;;;;;1904372;74;21148;-69
2021/03/15 08:17:48;;;;;;;18.12;4.40;;;8.90;99.90;;;;;;1905723;74;21616;-70
2021/03/15 08:20:16;;;;;;;17.45;4.42;;;9.00;99.90;;;;;;1910368;73;21108;-73
2021/03/15 08:22:46;;;;;;;18.17;3.85;;;9.00;99.90;;;;;;1909425;73;21143;-73
2021/03/15 08:25:14;;;;;;;20.30;4.35;;;9.00;99.90;;;;;;1882337;74;21146;-73
2021/03/15 08:27:43;;;;;;;16.32;4.62;;;9.00;99.90;;;;;;1906949;73;21582;-73
2021/03/15 08:30:20;;;;;;;21.33;4.28;;;9.00;99.90;;;;;;1873241;74;21124;-74
2021/03/15 08:32:48;;;;;;;21.57;4.30;;;9.00;99.90;;;;;;1880111;74;21197;-73
2021/03/15 08:35:17;;;;;;;16.57;4.05;;;9.00;99.90;;;;;;1871660;75;21271;-73
2021/03/15 08:37:56;;;;;;;18.98;4.47;;;9.00;99.90;;;;;;1880576;74;21179;-73
2021/03/15 08:40:45;;;;;;;24.15;4.72;;;9.10;99.90;;;;;;1879488;74;21500;-74
2021/03/15 08:43:21;;;;;;;13.75;3.77;;;8.90;99.90;;;;;;1879116;74;21194;-73
2021/03/15 08:45:50;;;;;;;18.85;4.42;;;8.80;99.90;;;;;;1882249;74;21628;-73
2021/03/15 08:48:20;;;;;;;15.68;3.92;;;8.80;99.90;;;;;;1886505;74;21125;-72
2021/03/15 08:50:49;;;;;;;20.40;3.95;;;8.90;99.90;;;;;;1881974;74;21125;-73
2021/03/15 08:53:44;;;;;;;23.18;5.47;;;9.10;99.90;;;;;;1877488;74;21257;-73
2021/03/15 08:56:19;;;;;;;19.77;5.05;;;9.20;99.90;;;;;;1879521;74;21183;-73
2021/03/15 08:58:53;;;;;;;20.43;4.97;;;9.30;99.90;;;;;;1879802;74;21645;-73
2021/03/15 09:01:21;;;;;;;23.47;4.70;;;9.30;99.90;;;;;;1881342;74;21197;-72
2021/03/15 09:03:59;;;;;;;14.23;4.62;;;9.40;99.90;;;;;;1875375;74;21129;-73
2021/03/15 09:06:33;;;;;;;14.58;4.15;;;9.40;99.90;;;;;;1847015;76;21117;-73
2021/03/15 09:09:12;;;;;;;17.90;4.12;;;9.40;99.90;;;;;;1846962;76;21145;-74
2021/03/15 09:11:44;;;;;;;13.62;4.00;;;9.40;99.90;;;;;;1843522;76;21159;-74
2021/03/15 09:14:30;;;;;;;;;;;9.50;99.90;;;;;;1884153;74;21227;-73
2021/03/15 09:16:59;;;;;;;16.42;4.35;;;9.60;99.90;;;;;;1851090;76;20781;-74
2021/03/15 09:19:36;;;;;;;21.45;4.42;;;9.60;99.90;;;;;;1844244;76;21157;-73
2021/03/15 09:22:06;;;;;;;12.78;3.87;;;9.60;99.90;;;;;;1837557;76;21137;-73
2021/03/15 09:25:03;;;;;;;22.67;4.55;;;9.70;99.90;;;;;;1834977;76;21605;-73
2021/03/15 09:27:36;;;;;;;19.05;3.40;;;9.70;99.90;;;;;;1842289;76;21587;-74
2021/03/15 09:30:13;;;;;;;16.73;3.50;;;9.90;99.90;;;;;;1846746;76;21202;-73
2021/03/15 09:32:49;;;;;;;20.82;4.05;;;10.00;99.90;;;;;;1846210;76;21664;-73
2021/03/15 09:35:23;;;;;;;22.00;3.65;;;10.20;99.90;;;;;;1844154;76;21155;-74
2021/03/15 09:37:53;;;;;;;18.67;3.75;;;10.30;99.90;;;;;;1842062;76;21564;-73
2021/03/15 09:40:24;;;;;;;17.25;3.20;;;10.50;99.90;;;;;;1875641;75;21031;-73
2021/03/15 09:42:52;;;;;;;21.97;3.47;;;10.50;99.90;;;;;;1875112;75;21152;-73
2021/03/15 09:45:29;;;;;;;13.40;2.65;;;10.50;99.90;;;;;;1884981;74;21214;-73
2021/03/15 09:47:57;;;;;;;21.50;3.60;;;10.50;99.90;;;;;;1882686;74;21120;-72
2021/03/15 09:50:27;;;;;;;22.80;4.00;;;10.60;99.90;;;;;;1861522;76;21298;-74
2021/03/15 09:53:06;;;;;;;24.25;3.98;;;10.70;99.90;;;;;;1883235;74;21125;-72
2021/03/15 09:55:34;;;;;;;16.55;3.98;;;10.70;99.90;;;;;;1847011;76;21148;-72
2021/03/15 09:58:09;;;;;;;22.85;3.95;;;10.80;99.90;;;;;;1843937;76;21106;-72
2021/03/15 10:00:37;;;;;;;23.87;4.92;;;10.90;99.90;;;;;;1846276;76;21097;-73
2021/03/15 10:03:05;;;;;;;21.50;3.87;;;10.90;99.90;;;;;;1843782;76;21535;-73
2021/03/15 10:05:32;;;;;;;17.32;3.58;;;11.10;99.90;;;;;;1846379;76;22579;-73
2021/03/15 10:08:00;;;;;;;17.42;3.58;;;11.00;99.90;;;;;;1849850;76;21137;-73
2021/03/15 10:10:27;;;;;;;16.40;3.50;;;11.00;99.90;;;;;;1841910;76;21037;-74
2021/03/15 10:13:04;;;;;;;14.78;3.27;;;11.00;99.90;;;;;;1877992;75;21038;-73
2021/03/15 10:15:31;;;;;;;19.05;4.00;;;11.10;99.90;;;;;;1872625;75;21031;-73
2021/03/15 10:17:59;;;;;;;18.07;3.90;;;11.20;99.90;;;;;;1876300;75;21570;-73
2021/03/15 10:20:32;;;;;;;17.35;3.70;;;11.30;99.90;;;;;;1874591;75;21179;-73
2021/03/15 10:23:18;;;;;;;22.20;4.35;;;11.50;99.90;;;;;;1867638;75;21156;-73
2021/03/15 10:25:57;;;;;;;14.98;3.37;;;11.60;99.90;;;;;;1874740;75;21136;-72
2021/03/15 10:28:26;;;;;;;18.65;3.70;;;11.60;99.90;;;;;;1881865;74;21133;-72
2021/03/15 10:30:54;;;;;;;16.02;3.20;;;11.50;99.90;;;;;;1881520;74;21496;-72
2021/03/15 10:33:22;;;;;;;16.07;3.12;;;11.60;99.90;;;;;;1843119;76;21113;-73
2021/03/15 10:35:55;;;;;;;22.67;3.75;;;11.70;99.90;;;;;;1875003;75;21171;-72
2021/03/15 10:38:23;;;;;;;17.00;3.67;;;11.60;99.90;;;;;;1873209;75;21219;-72
2021/03/15 10:40:51;;;;;;;17.25;3.15;;;11.50;99.90;;;;;;1876558;75;21069;-72
2021/03/15 10:43:23;;;;;;;13.03;2.52;;;11.40;99.90;;;;;;1873042;75;21140;-73
2021/03/15 10:45:51;;;;;;;16.30;2.87;;;11.40;99.90;;;;;;1875170;75;21104;-73
2021/03/15 10:48:20;;;;;;;15.23;2.77;;;11.30;99.90;;;;;;1878032;75;21152;-72
2021/03/15 10:50:47;;;;;;;14.78;3.12;;;11.20;99.90;;;;;;1871975;75;21571;-72
2021/03/15 10:53:21;;;;;;;12.05;3.08;;;11.20;99.90;;;;;;1875262;75;21120;-73
2021/03/15 10:55:48;;;;;;;14.95;2.52;;;11.20;99.90;;;;;;1873514;75;21175;-73
2021/03/15 10:58:18;;;;;;;13.00;2.67;;;11.10;99.90;;;;;;1875725;75;21199;-72
2021/03/15 11:00:51;;;;;;;16.05;3.52;;;11.20;99.90;;;;;;1868032;75;21100;-72
2021/03/15 11:03:30;;;;;;;18.07;3.62;;;11.30;99.90;;;;;;1870222;75;22145;-72
2021/03/15 11:06:10;;;;;;;16.32;3.25;;;11.50;99.90;;;;;;1850194;76;21081;-72
2021/03/15 11:08:39;;;;;;;16.75;3.90;;;11.60;99.90;;;;;;1846527;76;21222;-73
2021/03/15 11:11:26;;;;;;;14.70;3.65;;;11.70;99.90;;;;;;1851089;76;21111;-74
2021/03/15 11:13:57;;;;;;;17.50;3.92;;;11.90;99.90;;;;;;1850385;76;21403;-73
2021/03/15 11:16:29;;;;;;;16.85;3.62;;;12.00;99.90;;;;;;1843015;76;21086;-73
2021/03/15 11:19:08;;;;;;;17.25;3.80;;;12.00;99.90;;;;;;1883007;73;21145;-73
2021/03/15 11:21:41;;;;;;;24.70;4.87;;;12.10;99.90;;;;;;1879639;74;21066;-74
2021/03/15 11:24:09;;;;;;;24.87;5.05;;;11.90;99.90;;;;;;1879921;74;21430;-74
2021/03/15 11:26:48;;;;;;;24.70;4.75;;;11.90;99.90;;;;;;1882269;74;21149;-75
2021/03/15 11:29:17;;;;;;;19.37;3.92;;;12.00;99.90;;;;;;1882155;74;21571;-73
2021/03/15 11:31:52;;;;;;;20.12;3.47;;;12.00;99.90;;;;;;1879676;74;21061;-73
2021/03/15 11:34:25;;;;;;;20.17;3.87;;;11.80;99.90;;;;;;1881013;74;21231;-72
2021/03/15 11:36:53;;;;;;;23.20;4.58;;;11.70;99.90;;;;;;1881598;74;21074;-73
2021/03/15 11:39:21;;;;;;;17.30;3.30;;;11.70;99.90;;;;;;1878673;74;21630;-72
2021/03/15 11:41:49;;;;;;;11.33;2.67;;;11.60;99.90;;;;;;1882080;74;21128;-72
2021/03/15 11:44:16;;;;;;;20.17;3.62;;;11.50;99.90;;;;;;1878850;74;21170;-73
2021/03/15 11:46:44;;;;;;;25.90;3.55;;;11.40;99.90;;;;;;1884582;74;21512;-73
2021/03/15 11:49:11;;;;;;;19.62;4.08;;;11.30;99.90;;;;;;1881174;74;21225;-73
2021/03/15 11:51:39;;;;;;;19.70;3.52;;;11.40;99.90;;;;;;1879900;74;21111;-74
2021/03/15 11:54:06;;;;;;;23.62;4.15;;;11.60;99.90;;;;;;1882418;74;21101;-73
2021/03/15 11:56:34;;;;;;;31.07;4.95;;;11.80;99.90;;;;;;1882999;74;21688;-73
2021/03/15 11:59:01;;;;;;;30.08;4.53;;;11.80;99.90;;;;;;1879364;74;21207;-73
2021/03/15 12:01:29;;;;;;;20.48;4.33;;;11.90;99.90;;;;;;1877094;74;21108;-73
2021/03/15 12:03:56;;;;;;;26.27;5.33;;;12.00;99.90;;;;;;1875870;74;21500;-73
2021/03/15 12:06:24;;;;;;;18.95;4.08;;;12.00;99.90;;;;;;1884628;74;21062;-73
2021/03/15 12:08:51;;;;;;;21.12;4.45;;;12.00;99.90;;;;;;1878783;74;21247;-73
2021/03/15 12:11:19;;;;;;;27.73;5.00;;;12.00;99.90;;;;;;1847551;76;21140;-73
2021/03/15 12:13:46;;;;;;;19.60;4.08;;;12.10;99.90;;;;;;1843888;76;21194;-72
2021/03/15 12:16:14;;;;;;;20.97;4.65;;;12.00;99.90;;;;;;1854784;76;21121;-72
2021/03/15 12:18:41;;;;;;;23.20;4.47;;;11.90;99.90;;;;;;1881331;74;21097;-72
2021/03/15 12:21:09;;;;;;;30.05;4.62;;;11.90;99.90;;;;;;1882410;74;21195;-72
2021/03/15 12:23:36;;;;;;;24.37;4.53;;;11.80;99.90;;;;;;1878947;74;21190;-72
2021/03/15 12:26:04;;;;;;;28.20;4.53;;;11.70;99.90;;;;;;1851494;76;21157;-72
2021/03/15 12:28:32;;;;;;;23.42;4.42;;;11.60;99.90;;;;;;1854028;76;21175;-72
2021/03/15 12:30:59;;;;;;;29.52;4.67;;;11.60;99.90;;;;;;1854019;76;21415;-73
2021/03/15 12:33:27;;;;;;;24.32;4.50;;;11.50;99.90;;;;;;1848892;76;21903;-72
2021/03/15 12:35:54;;;;;;;20.27;3.72;;;11.40;99.90;;;;;;1847105;76;21097;-73
2021/03/15 12:38:22;;;;;;;22.32;3.25;;;11.30;99.90;;;;;;1886683;74;21118;-72
2021/03/15 12:40:49;;;;;;;26.75;4.10;;;11.10;99.90;;;;;;1849396;76;21249;-72
2021/03/15 12:43:17;;;;;;;16.82;3.00;;;11.00;99.90;;;;;;1851776;76;21146;-72
2021/03/15 12:45:44;;;;;;;24.63;4.28;;;11.10;99.90;;;;;;1878163;74;21093;-72
2021/03/15 12:48:12;;;;;;;20.35;3.72;;;11.00;99.90;;;;;;1844122;76;21118;-72
2021/03/15 12:50:39;;;;;;;30.00;4.22;;;11.10;99.90;;;;;;1874721;75;21089;-72
2021/03/15 12:53:07;;;;;;;25.23;4.35;;;11.20;99.90;;;;;;1875362;75;21105;-72
2021/03/15 12:55:34;;;;;;;23.62;4.12;;;11.40;99.90;;;;;;1878734;75;21211;-72
2021/03/15 12:58:02;;;;;;;16.93;3.45;;;11.60;99.90;;;;;;1871360;75;21226;-72
2021/03/15 13:00:29;;;;;;;20.60;4.50;;;11.60;99.90;;;;;;1873070;75;21520;-71
2021/03/15 13:02:57;;;;;;;21.15;3.87;;;11.60;99.90;;;;;;1871621;75;22126;-72
2021/03/15 13:05:24;;;;;;;27.20;4.00;;;11.50;99.90;;;;;;1869738;75;21094;-71
2021/03/15 13:07:52;;;;;;;27.65;4.80;;;11.50;99.90;;;;;;1879678;75;21411;-72